createdAt,value
2019-02-15T00:00:32.025Z,-1.30
2019-02-15T00:03:00.596Z,-1.30
2019-02-15T00:05:29.042Z,-1.30
2019-02-15T00:07:57.473Z,-1.40
2019-02-15T00:10:25.930Z,-1.40
2019-02-15T00:12:56.267Z,-1.40
2019-02-15T00:15:24.701Z,-1.40
2019-02-15T00:17:54.758Z,-1.50
2019-02-15T00:20:27.531Z,-1.50
2019-02-15T00:22:58.869Z,-1.50
2019-02-15T00:25:27.327Z,-1.50
2019-02-15T00:27:56.879Z,-1.60
2019-02-15T00:30:25.675Z,-1.60
2019-02-15T00:32:54.116Z,-1.60
2019-02-15T00:35:22.531Z,-1.60
2019-02-15T00:37:53.813Z,-1.70
2019-02-15T00:40:22.240Z,-1.70
2019-02-15T00:42:50.662Z,-1.70
2019-02-15T00:45:21.479Z,-1.70
2019-02-15T00:48:00.271Z,-1.70
2019-02-15T00:50:48.002Z,-1.70
2019-02-15T00:53:32.901Z,-1.70
2019-02-15T00:56:10.304Z,-1.80
2019-02-15T00:58:42.758Z,-1.80
2019-02-15T01:01:20.523Z,-1.80
2019-02-15T01:03:52.916Z,-1.80
2019-02-15T01:06:34.861Z,-1.80
2019-02-15T01:09:05.016Z,-1.90
2019-02-15T01:11:51.335Z,-1.90
2019-02-15T01:14:19.769Z,-1.90
2019-02-15T01:16:48.196Z,-2.00
2019-02-15T01:19:17.615Z,-2.10
2019-02-15T01:21:46.031Z,-2.00
2019-02-15T01:24:14.468Z,-2.00
2019-02-15T01:26:49.240Z,-2.00
2019-02-15T01:29:25.775Z,-2.00
2019-02-15T01:32:12.445Z,-2.00
2019-02-15T01:34:42.518Z,-2.10
2019-02-15T01:37:15.340Z,-2.20
2019-02-15T01:39:45.444Z,-2.10
2019-02-15T01:42:22.673Z,-2.10
2019-02-15T01:44:58.378Z,-2.10
2019-02-15T01:47:26.867Z,-2.10
2019-02-15T01:49:57.223Z,-2.10
2019-02-15T01:52:25.627Z,-2.20
2019-02-15T01:54:54.112Z,-2.20
2019-02-15T01:57:24.637Z,-2.20
2019-02-15T01:59:53.065Z,-2.20
2019-02-15T02:02:23.159Z,-2.20
2019-02-15T02:04:53.686Z,-2.20
2019-02-15T02:07:22.175Z,-2.20
2019-02-15T02:09:50.646Z,-2.30
2019-02-15T02:12:19.105Z,-2.20
2019-02-15T02:14:47.531Z,-2.20
2019-02-15T02:17:15.961Z,-2.20
2019-02-15T02:19:44.387Z,-2.20
2019-02-15T02:22:12.817Z,-2.20
2019-02-15T02:24:41.267Z,-2.20
2019-02-15T02:27:09.685Z,-2.20
2019-02-15T02:29:38.109Z,-2.20
2019-02-15T02:32:06.554Z,-2.20
2019-02-15T02:34:34.973Z,-2.20
2019-02-15T02:37:03.435Z,-2.20
2019-02-15T02:39:31.915Z,-2.20
2019-02-15T02:42:00.338Z,-2.30
2019-02-15T02:44:28.777Z,-2.30
2019-02-15T02:46:57.200Z,-2.30
2019-02-15T02:49:25.614Z,-2.40
2019-02-15T02:51:54.061Z,-2.40
2019-02-15T02:54:22.470Z,-2.40
2019-02-15T02:56:50.901Z,-2.40
2019-02-15T02:59:19.314Z,-2.50
2019-02-15T03:01:47.747Z,-2.40
2019-02-15T03:04:16.168Z,-2.40
2019-02-15T03:06:44.591Z,-2.40
2019-02-15T03:09:13.014Z,-2.50
2019-02-15T03:11:41.455Z,-2.40
2019-02-15T03:14:11.766Z,-2.40
2019-02-15T03:16:40.041Z,-2.50
2019-02-15T03:19:08.471Z,-2.60
2019-02-15T03:21:36.932Z,-2.60
2019-02-15T03:24:05.347Z,-2.60
2019-02-15T03:26:33.791Z,-2.50
2019-02-15T03:29:02.227Z,-2.50
2019-02-15T03:31:30.671Z,-2.50
2019-02-15T03:33:59.110Z,-2.50
2019-02-15T03:36:44.329Z,-2.50
2019-02-15T03:39:23.473Z,-2.50
2019-02-15T03:41:51.923Z,-2.50
2019-02-15T03:44:22.710Z,-2.50
2019-02-15T03:46:50.481Z,-2.50
2019-02-15T03:49:18.936Z,-2.50
2019-02-15T03:51:47.650Z,-2.50
2019-02-15T03:54:16.062Z,-2.40
2019-02-15T03:56:44.557Z,-2.50
2019-02-15T03:59:13.216Z,-2.50
2019-02-15T04:01:41.639Z,-2.60
2019-02-15T04:04:10.113Z,-2.60
2019-02-15T04:06:38.518Z,-2.60
2019-02-15T04:09:07.420Z,-2.70
2019-02-15T04:11:35.882Z,-2.70
2019-02-15T04:14:04.315Z,-2.70
2019-02-15T04:16:32.787Z,-2.70
2019-02-15T04:19:01.205Z,-2.70
2019-02-15T04:21:29.618Z,-2.70
2019-02-15T04:23:58.059Z,-2.60
2019-02-15T04:26:26.514Z,-2.60
2019-02-15T04:28:54.947Z,-2.60
2019-02-15T04:31:23.352Z,-2.70
2019-02-15T04:33:51.780Z,-2.70
2019-02-15T04:36:20.222Z,-2.70
2019-02-15T04:38:48.673Z,-2.70
2019-02-15T04:41:17.220Z,-2.70
2019-02-15T04:43:45.666Z,-2.70
2019-02-15T04:46:14.078Z,-2.70
2019-02-15T04:48:42.525Z,-2.70
2019-02-15T04:51:10.955Z,-2.70
2019-02-15T04:53:39.407Z,-2.70
2019-02-15T04:56:07.888Z,-2.80
2019-02-15T04:58:36.324Z,-2.80
2019-02-15T05:01:04.752Z,-2.80
2019-02-15T05:03:33.167Z,-2.90
2019-02-15T05:06:07.714Z,-3.00
2019-02-15T05:08:36.150Z,-3.00
2019-02-15T05:11:04.559Z,-3.10
2019-02-15T05:13:32.997Z,-3.10
2019-02-15T05:16:01.423Z,-3.10
2019-02-15T05:18:29.850Z,-3.10
2019-02-15T05:20:58.266Z,-3.00
2019-02-15T05:23:26.703Z,-3.00
2019-02-15T05:25:55.131Z,-3.00
2019-02-15T05:28:23.583Z,-3.10
2019-02-15T05:30:52.007Z,-3.00
2019-02-15T05:33:20.448Z,-3.10
2019-02-15T05:35:48.874Z,-3.10
2019-02-15T05:38:17.311Z,-3.10
2019-02-15T05:40:45.729Z,-3.10
2019-02-15T05:43:14.166Z,-3.00
2019-02-15T05:45:42.599Z,-3.00
2019-02-15T05:48:11.025Z,-3.00
2019-02-15T05:50:39.464Z,-3.00
2019-02-15T05:53:07.944Z,-3.10
2019-02-15T05:55:36.432Z,-3.10
2019-02-15T05:58:04.858Z,-3.10
2019-02-15T06:00:37.022Z,-3.20
2019-02-15T06:03:03.454Z,-3.20
2019-02-15T06:05:32.864Z,-3.20
2019-02-15T06:08:01.279Z,-3.20
2019-02-15T06:10:30.641Z,-3.20
2019-02-15T06:12:59.057Z,-3.10
2019-02-15T06:15:27.491Z,-3.10
2019-02-15T06:17:55.944Z,-3.10
2019-02-15T06:20:24.452Z,-3.20
2019-02-15T06:22:52.896Z,-3.20
2019-02-15T06:25:21.315Z,-3.20
2019-02-15T06:27:49.715Z,-3.30
2019-02-15T06:30:18.139Z,-3.20
2019-02-15T06:32:46.566Z,-3.20
2019-02-15T06:35:15.018Z,-3.20
2019-02-15T06:37:43.446Z,-3.20
2019-02-15T06:40:11.891Z,-3.10
2019-02-15T06:42:40.324Z,-3.10
2019-02-15T06:45:08.838Z,-3.10
2019-02-15T06:47:37.258Z,-3.10
2019-02-15T06:50:07.431Z,-3.00
2019-02-15T06:52:35.974Z,-3.00
2019-02-15T06:55:05.216Z,-3.00
2019-02-15T06:57:33.638Z,-3.00
2019-02-15T07:00:18.539Z,-3.00
2019-02-15T07:02:48.598Z,-3.00
2019-02-15T07:05:21.664Z,-3.00
2019-02-15T07:07:50.088Z,-3.00
2019-02-15T07:10:18.518Z,-3.00
2019-02-15T07:12:46.959Z,-3.00
2019-02-15T07:15:15.383Z,-2.90
2019-02-15T07:17:43.838Z,-2.90
2019-02-15T07:20:12.264Z,-2.90
2019-02-15T07:22:40.694Z,-2.90
2019-02-15T07:25:11.047Z,-2.90
2019-02-15T07:27:39.475Z,-2.80
2019-02-15T07:30:12.800Z,-2.80
2019-02-15T07:32:41.224Z,-2.80
2019-02-15T07:35:09.992Z,-2.70
2019-02-15T07:37:38.406Z,-2.60
2019-02-15T07:40:10.946Z,-2.50
2019-02-15T07:42:39.375Z,-2.50
2019-02-15T07:45:11.900Z,-2.40
2019-02-15T07:47:40.335Z,-2.40
2019-02-15T07:50:13.623Z,-2.40
2019-02-15T07:52:42.058Z,-2.30
2019-02-15T07:55:10.546Z,-2.30
2019-02-15T07:57:38.971Z,-2.20
2019-02-15T08:00:10.480Z,-2.20
2019-02-15T08:02:38.904Z,-1.90
2019-02-15T08:05:08.549Z,-1.10
2019-02-15T08:07:36.988Z,0.10
2019-02-15T08:10:08.042Z,0.70
2019-02-15T08:12:36.494Z,1.40
2019-02-15T08:15:07.490Z,2.00
2019-02-15T08:17:35.959Z,2.20
2019-02-15T08:20:06.591Z,2.70
2019-02-15T08:22:35.017Z,3.30
2019-02-15T08:25:03.759Z,3.80
2019-02-15T08:27:32.960Z,3.60
2019-02-15T08:30:01.388Z,3.40
2019-02-15T08:32:29.833Z,3.50
2019-02-15T08:34:58.244Z,4.00
2019-02-15T08:37:26.669Z,4.30
2019-02-15T08:39:55.112Z,4.00
2019-02-15T08:42:23.535Z,4.00
2019-02-15T08:44:56.959Z,3.70
2019-02-15T08:47:25.349Z,3.70
2019-02-15T08:49:53.791Z,3.70
2019-02-15T08:52:22.229Z,4.10
2019-02-15T08:54:50.643Z,4.60
2019-02-15T08:57:19.053Z,5.20
2019-02-15T08:59:47.475Z,5.60
2019-02-15T09:02:20.227Z,6.20
2019-02-15T09:04:48.648Z,6.40
2019-02-15T09:07:17.064Z,6.30
2019-02-15T09:09:45.491Z,6.20
2019-02-15T09:12:13.949Z,6.30
2019-02-15T09:14:42.379Z,6.30
2019-02-15T09:17:10.780Z,6.20
2019-02-15T09:19:39.206Z,6.10
2019-02-15T09:22:07.626Z,6.60
2019-02-15T09:24:36.048Z,6.50
2019-02-15T09:27:06.090Z,6.70
2019-02-15T09:29:34.503Z,7.10
2019-02-15T09:32:02.969Z,7.20
2019-02-15T09:34:33.060Z,7.40
2019-02-15T09:37:01.603Z,7.60
2019-02-15T09:39:30.027Z,7.70
2019-02-15T09:41:58.427Z,7.80
2019-02-15T09:44:26.893Z,7.90
2019-02-15T09:46:55.330Z,8.20
2019-02-15T09:49:24.362Z,8.50
2019-02-15T09:51:52.827Z,8.90
2019-02-15T09:54:21.254Z,9.50
2019-02-15T09:56:49.671Z,9.60
2019-02-15T09:59:18.123Z,9.30
2019-02-15T10:01:46.520Z,9.20
2019-02-15T10:04:14.950Z,9.40
2019-02-15T10:06:43.359Z,9.70
2019-02-15T10:09:11.775Z,9.70
2019-02-15T10:11:40.175Z,9.90
2019-02-15T10:14:08.596Z,10.10
2019-02-15T10:16:37.022Z,10.30
2019-02-15T10:19:05.448Z,10.30
2019-02-15T10:21:33.872Z,10.00
2019-02-15T10:24:02.297Z,10.50
2019-02-15T10:26:30.719Z,10.90
2019-02-15T10:28:59.128Z,11.30
2019-02-15T10:31:27.620Z,11.20
2019-02-15T10:33:56.030Z,10.40
2019-02-15T10:36:24.463Z,10.60
2019-02-15T10:38:52.911Z,10.50
2019-02-15T10:41:21.346Z,10.50
2019-02-15T10:43:49.764Z,11.10
2019-02-15T10:46:18.186Z,11.50
2019-02-15T10:48:46.611Z,11.70
2019-02-15T10:51:15.043Z,11.80
2019-02-15T10:53:43.464Z,11.90
2019-02-15T10:56:11.888Z,11.70
2019-02-15T10:58:40.296Z,11.70
2019-02-15T11:01:09.407Z,11.40
2019-02-15T11:03:37.823Z,10.90
2019-02-15T11:06:06.252Z,10.90
2019-02-15T11:08:34.656Z,10.80
2019-02-15T11:11:03.067Z,10.80
2019-02-15T11:13:32.140Z,10.60
2019-02-15T11:16:00.590Z,10.60
2019-02-15T11:18:28.999Z,10.30
2019-02-15T11:20:57.423Z,10.30
2019-02-15T11:23:25.848Z,10.10
2019-02-15T11:25:54.288Z,10.00
2019-02-15T11:28:22.679Z,9.90
2019-02-15T11:30:51.098Z,9.80
2019-02-15T11:33:19.537Z,9.80
2019-02-15T11:35:48.055Z,9.90
2019-02-15T11:38:16.536Z,10.00
2019-02-15T11:40:44.948Z,10.10
2019-02-15T11:43:15.064Z,10.20
2019-02-15T11:45:43.730Z,10.10
2019-02-15T11:48:12.151Z,10.10
2019-02-15T11:50:40.553Z,10.20
2019-02-15T11:53:09.027Z,10.30
2019-02-15T11:55:37.505Z,10.30
2019-02-15T11:58:05.943Z,10.40
2019-02-15T12:00:35.980Z,10.40
2019-02-15T12:03:04.982Z,10.50
2019-02-15T12:05:33.391Z,10.60
2019-02-15T12:08:01.815Z,10.60
2019-02-15T12:10:30.327Z,10.70
2019-02-15T12:12:58.762Z,10.70
2019-02-15T12:15:27.485Z,10.80
2019-02-15T12:17:56.020Z,10.90
2019-02-15T12:20:24.427Z,10.90
2019-02-15T12:22:52.878Z,11.00
2019-02-15T12:25:21.302Z,11.10
2019-02-15T12:27:49.749Z,11.20
2019-02-15T12:30:18.178Z,11.20
2019-02-15T12:32:46.607Z,11.20
2019-02-15T12:35:15.029Z,11.40
2019-02-15T12:37:43.444Z,11.50
2019-02-15T12:40:13.196Z,11.50
2019-02-15T12:42:41.608Z,11.60
2019-02-15T12:45:14.145Z,11.70
2019-02-15T12:47:42.566Z,11.80
2019-02-15T12:50:13.849Z,11.90
2019-02-15T12:52:42.287Z,12.00
2019-02-15T12:55:10.704Z,12.10
2019-02-15T12:57:39.104Z,12.20
2019-02-15T13:00:11.008Z,12.20
2019-02-15T13:02:39.458Z,12.30
2019-02-15T13:05:09.349Z,12.40
2019-02-15T13:07:37.828Z,12.50
2019-02-15T13:10:10.893Z,12.60
2019-02-15T13:12:39.323Z,12.60
2019-02-15T13:15:11.650Z,12.70
2019-02-15T13:17:40.081Z,12.80
2019-02-15T13:20:09.639Z,12.80
2019-02-15T13:22:38.055Z,12.80
2019-02-15T13:25:07.414Z,12.90
2019-02-15T13:27:35.864Z,12.90
2019-02-15T13:30:09.868Z,13.00
2019-02-15T13:32:38.290Z,13.10
2019-02-15T13:35:09.472Z,13.20
2019-02-15T13:37:37.870Z,13.30
2019-02-15T13:40:08.159Z,13.30
2019-02-15T13:42:36.571Z,13.30
2019-02-15T13:45:12.582Z,13.40
2019-02-15T13:47:41.002Z,13.50
2019-02-15T13:50:14.122Z,13.50
2019-02-15T13:52:42.550Z,13.60
2019-02-15T13:55:11.351Z,13.60
2019-02-15T13:57:39.820Z,13.50
2019-02-15T14:00:11.348Z,13.50
2019-02-15T14:02:39.779Z,13.60
2019-02-15T14:05:10.720Z,13.60
2019-02-15T14:07:39.269Z,13.60
2019-02-15T14:10:12.510Z,13.60
2019-02-15T14:12:40.928Z,13.60
2019-02-15T14:15:11.294Z,13.60
2019-02-15T14:17:44.835Z,13.60
2019-02-15T14:20:12.359Z,13.60
2019-02-15T14:22:40.775Z,13.60
2019-02-15T14:25:11.136Z,13.60
2019-02-15T14:27:39.619Z,13.60
2019-02-15T14:30:10.411Z,13.70
2019-02-15T14:32:38.883Z,13.80
2019-02-15T14:35:09.354Z,13.80
2019-02-15T14:37:37.783Z,13.80
2019-02-15T14:40:08.826Z,13.80
2019-02-15T14:42:37.263Z,13.80
2019-02-15T14:45:07.518Z,13.80
2019-02-15T14:47:35.944Z,13.80
2019-02-15T14:50:05.504Z,13.80
2019-02-15T14:52:33.924Z,13.80
2019-02-15T14:55:02.414Z,13.80
2019-02-15T14:57:30.846Z,13.80
2019-02-15T14:59:59.267Z,13.80
2019-02-15T15:02:27.684Z,13.80
2019-02-15T15:04:56.097Z,13.80
2019-02-15T15:07:24.525Z,13.80
2019-02-15T15:09:52.943Z,13.80
2019-02-15T15:12:21.382Z,13.80
2019-02-15T15:14:49.790Z,13.80
2019-02-15T15:17:18.238Z,13.70
2019-02-15T15:19:46.651Z,13.70
2019-02-15T15:22:15.075Z,13.70
2019-02-15T15:24:43.488Z,13.60
2019-02-15T15:27:11.907Z,13.60
2019-02-15T15:29:40.314Z,13.60
2019-02-15T15:32:08.746Z,13.60
2019-02-15T15:34:37.155Z,13.60
2019-02-15T15:37:05.827Z,13.50
2019-02-15T15:39:34.228Z,13.50
2019-02-15T15:42:02.656Z,13.50
2019-02-15T15:44:31.079Z,13.40
2019-02-15T15:46:59.503Z,13.40
2019-02-15T15:49:27.929Z,13.30
2019-02-15T15:51:56.355Z,13.30
2019-02-15T15:54:24.772Z,13.30
2019-02-15T15:56:53.202Z,13.20
2019-02-15T15:59:21.607Z,13.20
2019-02-15T16:01:50.032Z,13.10
2019-02-15T16:04:18.435Z,13.00
2019-02-15T16:06:46.900Z,12.90
2019-02-15T16:09:15.311Z,12.90
2019-02-15T16:11:43.728Z,12.90
2019-02-15T16:14:12.160Z,12.70
2019-02-15T16:16:40.588Z,12.50
2019-02-15T16:19:09.040Z,12.30
2019-02-15T16:21:37.485Z,12.00
2019-02-15T16:24:12.356Z,11.70
2019-02-15T16:26:36.083Z,11.50
2019-02-15T16:29:04.530Z,11.20
2019-02-15T16:31:32.960Z,10.90
2019-02-15T16:34:01.395Z,10.60
2019-02-15T16:36:29.846Z,10.40
2019-02-15T16:38:58.267Z,10.20
2019-02-15T16:41:26.680Z,10.10
2019-02-15T16:43:55.132Z,10.00
2019-02-15T16:46:23.544Z,9.80
2019-02-15T16:48:51.970Z,9.90
2019-02-15T16:51:20.375Z,9.50
2019-02-15T16:53:48.794Z,9.30
2019-02-15T16:56:17.206Z,9.10
2019-02-15T16:58:45.630Z,9.00
2019-02-15T17:01:14.031Z,8.90
2019-02-15T17:03:42.456Z,8.70
2019-02-15T17:06:11.106Z,8.60
2019-02-15T17:08:39.529Z,8.50
2019-02-15T17:11:07.922Z,8.40
2019-02-15T17:13:36.350Z,8.40
2019-02-15T17:16:04.786Z,8.30
2019-02-15T17:18:33.184Z,8.10
2019-02-15T17:21:01.609Z,7.90
2019-02-15T17:23:30.018Z,7.80
2019-02-15T17:25:58.443Z,7.50
2019-02-15T17:28:26.842Z,7.40
2019-02-15T17:30:55.276Z,7.20
2019-02-15T17:33:23.714Z,7.10
2019-02-15T17:35:52.119Z,7.00
2019-02-15T17:38:20.523Z,6.90
2019-02-15T17:40:48.947Z,6.80
2019-02-15T17:43:18.370Z,6.70
2019-02-15T17:45:46.799Z,6.60
2019-02-15T17:48:15.221Z,6.40
2019-02-15T17:50:43.650Z,6.40
2019-02-15T17:53:12.130Z,6.40
2019-02-15T17:55:40.555Z,6.30
2019-02-15T17:58:08.955Z,6.30
2019-02-15T18:00:37.621Z,6.20
2019-02-15T18:03:06.031Z,6.10
2019-02-15T18:05:34.458Z,6.00
2019-02-15T18:08:02.879Z,5.80
2019-02-15T18:10:31.340Z,5.60
2019-02-15T18:13:00.792Z,5.50
2019-02-15T18:15:29.238Z,5.40
2019-02-15T18:17:57.746Z,5.40
2019-02-15T18:20:26.191Z,5.40
2019-02-15T18:22:54.618Z,5.40
2019-02-15T18:25:23.021Z,5.30
2019-02-15T18:27:51.455Z,5.30
2019-02-15T18:30:19.891Z,5.30
2019-02-15T18:32:48.331Z,5.20
2019-02-15T18:35:16.765Z,5.10
2019-02-15T18:37:45.198Z,5.00
2019-02-15T18:40:13.707Z,4.90
2019-02-15T18:42:43.232Z,4.80
2019-02-15T18:45:13.698Z,4.60
2019-02-15T18:47:42.146Z,4.50
2019-02-15T18:50:10.678Z,4.30
2019-02-15T18:52:39.151Z,4.20
2019-02-15T18:55:09.496Z,4.10
2019-02-15T18:57:37.937Z,4.00
2019-02-15T19:00:12.464Z,4.00
2019-02-15T19:02:40.921Z,4.10
2019-02-15T19:05:11.092Z,4.00
2019-02-15T19:07:39.527Z,3.90
2019-02-15T19:10:11.263Z,3.80
2019-02-15T19:12:39.690Z,3.80
2019-02-15T19:15:10.935Z,3.60
2019-02-15T19:17:39.374Z,3.50
2019-02-15T19:20:10.315Z,3.50
2019-02-15T19:22:38.894Z,3.40
2019-02-15T19:25:12.448Z,3.20
2019-02-15T19:27:40.935Z,3.20
2019-02-15T19:30:12.196Z,3.10
2019-02-15T19:32:40.743Z,3.10
2019-02-15T19:35:09.480Z,3.10
2019-02-15T19:37:37.911Z,3.00
2019-02-15T19:40:11.892Z,2.90
2019-02-15T19:42:41.478Z,2.80
2019-02-15T19:45:11.342Z,2.70
2019-02-15T19:47:39.757Z,2.70
2019-02-15T19:50:13.797Z,2.60
2019-02-15T19:52:42.366Z,2.60
2019-02-15T19:55:11.463Z,2.50
2019-02-15T19:57:39.956Z,2.40
2019-02-15T20:00:14.296Z,2.40
2019-02-15T20:02:42.726Z,2.40
2019-02-15T20:05:11.195Z,2.40
2019-02-15T20:07:39.693Z,2.30
2019-02-15T20:10:13.943Z,2.20
2019-02-15T20:12:42.401Z,2.10
2019-02-15T20:15:12.826Z,2.10
2019-02-15T20:17:41.267Z,2.00
2019-02-15T20:20:15.271Z,1.90
2019-02-15T20:22:43.755Z,1.80
2019-02-15T20:25:13.266Z,1.80
2019-02-15T20:27:41.744Z,1.70
2019-02-15T20:30:16.192Z,1.70
2019-02-15T20:32:44.728Z,1.70
2019-02-15T20:35:13.717Z,1.70
2019-02-15T20:37:42.262Z,1.60
2019-02-15T20:40:12.026Z,1.60
2019-02-15T20:42:40.585Z,1.60
2019-02-15T20:45:22.286Z,1.60
2019-02-15T20:47:50.890Z,1.50
2019-02-15T20:50:19.692Z,1.40
2019-02-15T20:52:48.133Z,1.40
2019-02-15T20:55:18.034Z,1.50
2019-02-15T20:57:46.570Z,1.40
2019-02-15T21:00:26.505Z,1.30
2019-02-15T21:10:20.744Z,1.10
2019-02-15T21:12:49.187Z,1.10
2019-02-15T21:15:17.662Z,1.00
2019-02-15T21:17:46.203Z,0.80
2019-02-15T21:20:15.155Z,0.80
2019-02-15T21:22:43.587Z,0.80
2019-02-15T21:25:16.219Z,0.90
2019-02-15T21:27:44.641Z,0.90
2019-02-15T21:30:19.169Z,0.90
2019-02-15T21:32:47.558Z,0.90
2019-02-15T21:35:15.979Z,0.90
2019-02-15T21:37:44.395Z,0.90
2019-02-15T21:40:16.979Z,0.80
2019-02-15T21:42:45.413Z,0.70
2019-02-15T21:45:14.331Z,0.70
2019-02-15T21:47:42.754Z,0.50
2019-02-15T21:50:17.281Z,0.50
2019-02-15T21:52:44.334Z,0.50
2019-02-15T21:55:13.956Z,0.40
2019-02-15T21:57:42.372Z,0.50
2019-02-15T22:00:22.002Z,0.50
2019-02-15T22:02:50.406Z,0.50
2019-02-15T22:05:18.813Z,0.40
2019-02-15T22:07:47.246Z,0.40
2019-02-15T22:10:15.690Z,0.20
2019-02-15T22:12:44.115Z,0.20
2019-02-15T22:15:15.633Z,0.20
2019-02-15T22:17:44.034Z,0.20
2019-02-15T22:20:13.896Z,0.20
2019-02-15T22:22:42.326Z,0.20
2019-02-15T22:25:11.044Z,0.20
2019-02-15T22:27:39.458Z,0.20
2019-02-15T22:30:18.114Z,0.10
2019-02-15T22:32:46.547Z,0.00
2019-02-15T22:35:14.959Z,0.00
2019-02-15T22:37:43.410Z,-0.20
2019-02-15T22:40:29.027Z,-0.20
2019-02-15T22:43:02.922Z,-0.30
2019-02-15T22:45:31.346Z,-0.30
2019-02-15T22:47:59.793Z,-0.40
2019-02-15T22:50:35.786Z,-0.40
2019-02-15T22:52:58.356Z,-0.40
2019-02-15T22:55:26.773Z,-0.40
2019-02-15T22:57:55.207Z,-0.40
2019-02-15T23:00:49.038Z,-0.40
2019-02-15T23:03:19.392Z,-0.40
2019-02-15T23:05:47.817Z,-0.40
2019-02-15T23:08:16.236Z,-0.40
2019-02-15T23:10:44.661Z,-0.50
2019-02-15T23:13:13.083Z,-0.50
2019-02-15T23:15:41.516Z,-0.50
2019-02-15T23:18:09.951Z,-0.50
2019-02-15T23:20:44.844Z,-0.60
2019-02-15T23:23:08.529Z,-0.60
2019-02-15T23:25:36.947Z,-0.50
2019-02-15T23:28:05.373Z,-0.50
2019-02-15T23:30:33.866Z,-0.50
2019-02-15T23:33:02.295Z,-0.50
2019-02-15T23:35:30.731Z,-0.60
2019-02-15T23:37:59.131Z,-0.60
2019-02-15T23:40:27.561Z,-0.70
2019-02-15T23:42:55.995Z,-0.80
2019-02-15T23:45:24.440Z,-0.80
2019-02-15T23:47:52.880Z,-0.70
2019-02-15T23:50:21.302Z,-0.70
2019-02-15T23:52:49.717Z,-0.70
2019-02-15T23:55:18.138Z,-0.80
2019-02-15T23:57:46.555Z,-0.90
